sensor_id;sensor_type;location;lat;lon;timestamp;pressure;altitude;pressure_sealevel;temperature;humidity
49835;BME280;35729;52.090;13.162;2024-03-07T00:00:58;102034.59;;;5.61;97.07
49835;BME280;35729;52.090;13.162;2024-03-07T00:03:29;102037.19;;;5.61;97.11
49835;BME280;35729;52.090;13.162;2024-03-07T00:05:57;102032.00;;;5.61;97.31
49835;BME280;35729;52.090;13.162;2024-03-07T00:08:29;102029.38;;;5.59;97.59
49835;BME280;35729;52.090;13.162;2024-03-07T00:10:57;102030.22;;;5.60;97.19
49835;BME280;35729;52.090;13.162;2024-03-07T00:13:25;102035.44;;;5.60;97.86
49835;BME280;35729;52.090;13.162;2024-03-07T00:15:54;102037.16;;;5.58;97.83
49835;BME280;35729;52.090;13.162;2024-03-07T00:18:22;102031.06;;;5.57;98.23
49835;BME280;35729;52.090;13.162;2024-03-07T00:20:51;102028.44;;;5.55;98.34
49835;BME280;35729;52.090;13.162;2024-03-07T00:23:20;102024.03;;;5.53;99.51
49835;BME280;35729;52.090;13.162;2024-03-07T00:25:51;102024.88;;;5.52;98.66
49835;BME280;35729;52.090;13.162;2024-03-07T00:28:20;102024.84;;;5.50;98.90
49835;BME280;35729;52.090;13.162;2024-03-07T00:30:48;102029.19;;;5.50;99.28
49835;BME280;35729;52.090;13.162;2024-03-07T00:33:16;102028.31;;;5.49;99.79
49835;BME280;35729;52.090;13.162;2024-03-07T00:35:47;102022.22;;;5.49;99.49
49835;BME280;35729;52.090;13.162;2024-03-07T00:38:15;102010.91;;;5.48;99.90
49835;BME280;35729;52.090;13.162;2024-03-07T00:40:44;102026.53;;;5.48;99.84
49835;BME280;35729;52.090;13.162;2024-03-07T00:43:15;102030.88;;;5.48;100.00
49835;BME280;35729;52.090;13.162;2024-03-07T00:45:43;102025.69;;;5.49;100.00
49835;BME280;35729;52.090;13.162;2024-03-07T00:48:15;102023.09;;;5.49;100.00
49835;BME280;35729;52.090;13.162;2024-03-07T00:50:43;102023.13;;;5.51;100.00
49835;BME280;35729;52.090;13.162;2024-03-07T00:53:09;102022.28;;;5.52;100.00
49835;BME280;35729;52.090;13.162;2024-03-07T00:55:38;102018.84;;;5.53;100.00
49835;BME280;35729;52.090;13.162;2024-03-07T00:58:06;102017.97;;;5.52;100.00
49835;BME280;35729;52.090;13.162;2024-03-07T01:00:37;102020.56;;;5.52;100.00
49835;BME280;35729;52.090;13.162;2024-03-07T01:03:08;102024.03;;;5.53;100.00
49835;BME280;35729;52.090;13.162;2024-03-07T01:05:39;102016.19;;;5.50;100.00
49835;BME280;35729;52.090;13.162;2024-03-07T01:08:07;102017.06;;;5.52;100.00
49835;BME280;35729;52.090;13.162;2024-03-07T01:10:36;102016.22;;;5.51;100.00
49835;BME280;35729;52.090;13.162;2024-03-07T01:13:04;102014.47;;;5.52;100.00
49835;BME280;35729;52.090;13.162;2024-03-07T01:15:37;102012.69;;;5.51;100.00
49835;BME280;35729;52.090;13.162;2024-03-07T01:18:05;102011.84;;;5.50;100.00
49835;BME280;35729;52.090;13.162;2024-03-07T01:20:33;102005.78;;;5.50;100.00
49835;BME280;35729;52.090;13.162;2024-03-07T01:23:02;102013.56;;;5.50;100.00
49835;BME280;35729;52.090;13.162;2024-03-07T01:25:31;102010.97;;;5.50;100.00
49835;BME280;35729;52.090;13.162;2024-03-07T01:28:00;102008.38;;;5.50;100.00
49835;BME280;35729;52.090;13.162;2024-03-07T01:30:29;102009.25;;;5.50;100.00
49835;BME280;35729;52.090;13.162;2024-03-07T01:33:01;102007.50;;;5.51;100.00
49835;BME280;35729;52.090;13.162;2024-03-07T01:35:29;102012.69;;;5.51;100.00
49835;BME280;35729;52.090;13.162;2024-03-07T01:37:57;102008.38;;;5.50;100.00
49835;BME280;35729;52.090;13.162;2024-03-07T01:40:26;102011.84;;;5.50;100.00
49835;BME280;35729;52.090;13.162;2024-03-07T01:42:54;102007.44;;;5.48;100.00
49835;BME280;35729;52.090;13.162;2024-03-07T01:45:23;102008.31;;;5.48;100.00
49835;BME280;35729;52.090;13.162;2024-03-07T01:47:52;102005.69;;;5.47;100.00
49835;BME280;35729;52.090;13.162;2024-03-07T01:50:23;102005.66;;;5.45;100.00
49835;BME280;35729;52.090;13.162;2024-03-07T01:52:54;102010.91;;;5.47;100.00
49835;BME280;35729;52.090;13.162;2024-03-07T01:55:23;102003.09;;;5.47;100.00
49835;BME280;35729;52.090;13.162;2024-03-07T01:57:52;102002.22;;;5.46;100.00
49835;BME280;35729;52.090;13.162;2024-03-07T02:00:20;102009.19;;;5.47;100.00
49835;BME280;35729;52.090;13.162;2024-03-07T02:02:48;102016.13;;;5.48;100.00
49835;BME280;35729;52.090;13.162;2024-03-07T02:05:17;102007.44;;;5.48;100.00
49835;BME280;35729;52.090;13.162;2024-03-07T02:07:48;102009.19;;;5.47;100.00
49835;BME280;35729;52.090;13.162;2024-03-07T02:10:17;102006.53;;;5.46;100.00
49835;BME280;35729;52.090;13.162;2024-03-07T02:12:45;102004.81;;;5.45;100.00
49835;BME280;35729;52.090;13.162;2024-03-07T02:15:14;101994.31;;;5.42;100.00
49835;BME280;35729;52.090;13.162;2024-03-07T02:17:43;102008.25;;;5.44;100.00
49835;BME280;35729;52.090;13.162;2024-03-07T02:20:12;102004.81;;;5.45;100.00
49835;BME280;35729;52.090;13.162;2024-03-07T02:22:44;102003.88;;;5.43;100.00
49835;BME280;35729;52.090;13.162;2024-03-07T02:25:12;102005.66;;;5.44;100.00
49835;BME280;35729;52.090;13.162;2024-03-07T02:27:41;101994.31;;;5.42;100.00
49835;BME280;35729;52.090;13.162;2024-03-07T02:30:12;101998.66;;;5.41;100.00
49835;BME280;35729;52.090;13.162;2024-03-07T02:32:40;101996.88;;;5.38;100.00
49835;BME280;35729;52.090;13.162;2024-03-07T02:35:14;101995.09;;;5.37;100.00
49835;BME280;35729;52.090;13.162;2024-03-07T02:37:46;101996.81;;;5.37;100.00
49835;BME280;35729;52.090;13.162;2024-03-07T02:40:15;101993.34;;;5.36;100.00
49835;BME280;35729;52.090;13.162;2024-03-07T02:42:43;101997.63;;;5.34;100.00
49835;BME280;35729;52.090;13.162;2024-03-07T02:45:13;101999.34;;;5.32;100.00
49835;BME280;35729;52.090;13.162;2024-03-07T02:47:41;101995.81;;;5.30;100.00
49835;BME280;35729;52.090;13.162;2024-03-07T02:50:10;101991.44;;;5.28;100.00
49835;BME280;35729;52.090;13.162;2024-03-07T02:52:39;101995.72;;;5.26;100.00
49835;BME280;35729;52.090;13.162;2024-03-07T02:55:10;101995.69;;;5.24;100.00
49835;BME280;35729;52.090;13.162;2024-03-07T02:57:38;101999.13;;;5.23;100.00
49835;BME280;35729;52.090;13.162;2024-03-07T03:00:08;101999.97;;;5.20;100.00
49835;BME280;35729;52.090;13.162;2024-03-07T03:02:45;101998.22;;;5.19;100.00
49835;BME280;35729;52.090;13.162;2024-03-07T03:05:14;102004.25;;;5.17;100.00
49835;BME280;35729;52.090;13.162;2024-03-07T03:07:44;102007.69;;;5.16;100.00
49835;BME280;35729;52.090;13.162;2024-03-07T03:10:21;102005.00;;;5.13;100.00
49835;BME280;35729;52.090;13.162;2024-03-07T03:12:52;102001.47;;;5.09;100.00
49835;BME280;35729;52.090;13.162;2024-03-07T03:15:23;101998.81;;;5.06;100.00
49835;BME280;35729;52.090;13.162;2024-03-07T03:17:51;102003.09;;;5.04;100.00
49835;BME280;35729;52.090;13.162;2024-03-07T03:20:20;102005.66;;;5.02;100.00
49835;BME280;35729;52.090;13.162;2024-03-07T03:22:59;102001.25;;;4.98;100.00
49835;BME280;35729;52.090;13.162;2024-03-07T03:25:31;102006.38;;;4.95;100.00
49835;BME280;35729;52.090;13.162;2024-03-07T03:28:00;101998.50;;;4.92;100.00
49835;BME280;35729;52.090;13.162;2024-03-07T03:30:29;102008.78;;;4.87;100.00
49835;BME280;35729;52.090;13.162;2024-03-07T03:32:58;102011.34;;;4.84;100.00
49835;BME280;35729;52.090;13.162;2024-03-07T03:35:27;102014.75;;;4.82;100.00
49835;BME280;35729;52.090;13.162;2024-03-07T03:37:55;102006.03;;;4.80;100.00
49835;BME280;35729;52.090;13.162;2024-03-07T03:40:23;102009.47;;;4.79;100.00
49835;BME280;35729;52.090;13.162;2024-03-07T03:42:54;102004.22;;;4.76;100.00
49835;BME280;35729;52.090;13.162;2024-03-07T03:45:23;102015.44;;;4.75;100.00
49835;BME280;35729;52.090;13.162;2024-03-07T03:47:51;102019.78;;;4.74;100.00
49835;BME280;35729;52.090;13.162;2024-03-07T03:50:20;102017.19;;;4.74;100.00
49835;BME280;35729;52.090;13.162;2024-03-07T03:52:50;102020.66;;;4.75;100.00
49835;BME280;35729;52.090;13.162;2024-03-07T03:55:18;102012.84;;;4.75;100.00
49835;BME280;35729;52.090;13.162;2024-03-07T03:57:48;102015.44;;;4.75;100.00
49835;BME280;35729;52.090;13.162;2024-03-07T04:00:19;102018.84;;;4.70;100.00
49835;BME280;35729;52.090;13.162;2024-03-07T04:02:48;102024.81;;;4.66;100.00
49835;BME280;35729;52.090;13.162;2024-03-07T04:05:18;102022.97;;;4.62;100.00
49835;BME280;35729;52.090;13.162;2024-03-07T04:07:47;102019.34;;;4.55;100.00
49835;BME280;35729;52.090;13.162;2024-03-07T04:10:22;102026.22;;;4.53;100.00
49835;BME280;35729;52.090;13.162;2024-03-07T04:12:57;102022.66;;;4.50;100.00
49835;BME280;35729;52.090;13.162;2024-03-07T04:15:30;102024.34;;;4.46;100.00
49835;BME280;35729;52.090;13.162;2024-03-07T04:17:59;102024.25;;;4.43;100.00
49835;BME280;35729;52.090;13.162;2024-03-07T04:20:27;102024.22;;;4.42;99.92
49835;BME280;35729;52.090;13.162;2024-03-07T04:22:56;102023.28;;;4.39;99.72
49835;BME280;35729;52.090;13.162;2024-03-07T04:25:24;102027.59;;;4.37;99.46
49835;BME280;35729;52.090;13.162;2024-03-07T04:27:53;102025.81;;;4.35;99.52
49835;BME280;35729;52.090;13.162;2024-03-07T04:30:23;102030.09;;;4.34;99.47
49835;BME280;35729;52.090;13.162;2024-03-07T04:32:54;102029.22;;;4.34;99.55
49835;BME280;35729;52.090;13.162;2024-03-07T04:35:23;102026.66;;;4.35;99.51
49835;BME280;35729;52.090;13.162;2024-03-07T04:37:52;102024.94;;;4.36;99.37
49835;BME280;35729;52.090;13.162;2024-03-07T04:40:21;102024.09;;;4.37;99.38
49835;BME280;35729;52.090;13.162;2024-03-07T04:42:49;102025.00;;;4.37;99.25
49835;BME280;35729;52.090;13.162;2024-03-07T04:45:18;102024.06;;;4.35;99.04
49835;BME280;35729;52.090;13.162;2024-03-07T04:47:47;102022.25;;;4.31;98.92
49835;BME280;35729;52.090;13.162;2024-03-07T04:50:18;102025.59;;;4.27;98.33
49835;BME280;35729;52.090;13.162;2024-03-07T04:52:46;102027.28;;;4.25;98.41
49835;BME280;35729;52.090;13.162;2024-03-07T04:55:15;102021.94;;;4.19;98.45
49835;BME280;35729;52.090;13.162;2024-03-07T04:57:43;102032.28;;;4.17;98.18
49835;BME280;35729;52.090;13.162;2024-03-07T05:00:13;102027.81;;;4.12;98.08
49835;BME280;35729;52.090;13.162;2024-03-07T05:02:46;102028.53;;;4.06;97.83
49835;BME280;35729;52.090;13.162;2024-03-07T05:05:14;102038.75;;;4.00;97.97
49835;BME280;35729;52.090;13.162;2024-03-07T05:07:50;102038.59;;;3.94;97.67
49835;BME280;35729;52.090;13.162;2024-03-07T05:10:18;102037.50;;;3.85;97.84
49835;BME280;35729;52.090;13.162;2024-03-07T05:12:47;102042.59;;;3.81;97.90
49835;BME280;35729;52.090;13.162;2024-03-07T05:15:16;102040.66;;;3.73;97.96
49835;BME280;35729;52.090;13.162;2024-03-07T05:17:44;102051.81;;;3.69;97.75
49835;BME280;35729;52.090;13.162;2024-03-07T05:20:13;102043.84;;;3.63;97.77
49835;BME280;35729;52.090;13.162;2024-03-07T05:22:41;102051.44;;;3.57;98.01
49835;BME280;35729;52.090;13.162;2024-03-07T05:25:18;102059.06;;;3.51;97.99
49835;BME280;35729;52.090;13.162;2024-03-07T05:27:47;102063.22;;;3.44;98.05
49835;BME280;35729;52.090;13.162;2024-03-07T05:30:16;102058.69;;;3.38;98.37
49835;BME280;35729;52.090;13.162;2024-03-07T05:32:46;102055.94;;;3.32;98.29
49835;BME280;35729;52.090;13.162;2024-03-07T05:35:15;102059.19;;;3.25;98.62
49835;BME280;35729;52.090;13.162;2024-03-07T05:37:44;102057.28;;;3.19;98.65
49835;BME280;35729;52.090;13.162;2024-03-07T05:40:13;102060.59;;;3.14;98.78
49835;BME280;35729;52.090;13.162;2024-03-07T05:42:44;102063.03;;;3.09;99.20
49835;BME280;35729;52.090;13.162;2024-03-07T05:45:13;102062.88;;;3.04;99.17
49835;BME280;35729;52.090;13.162;2024-03-07T05:47:43;102072.25;;;2.99;99.14
49835;BME280;35729;52.090;13.162;2024-03-07T05:50:12;102067.88;;;2.98;99.24
49835;BME280;35729;52.090;13.162;2024-03-07T05:52:42;102066.03;;;2.94;99.57
49835;BME280;35729;52.090;13.162;2024-03-07T05:55:10;102072.94;;;2.93;99.43
49835;BME280;35729;52.090;13.162;2024-03-07T05:57:44;102076.34;;;2.92;99.67
49835;BME280;35729;52.090;13.162;2024-03-07T06:00:14;102070.19;;;2.89;99.84
49835;BME280;35729;52.090;13.162;2024-03-07T06:02:52;102070.97;;;2.86;99.70
49835;BME280;35729;52.090;13.162;2024-03-07T06:05:21;102071.84;;;2.87;100.00
49835;BME280;35729;52.090;13.162;2024-03-07T06:07:50;102084.81;;;2.87;100.00
49835;BME280;35729;52.090;13.162;2024-03-07T06:10:19;102074.41;;;2.85;100.00
49835;BME280;35729;52.090;13.162;2024-03-07T06:12:52;102074.41;;;2.85;100.00
49835;BME280;35729;52.090;13.162;2024-03-07T06:15:20;102073.41;;;2.82;100.00
49835;BME280;35729;52.090;13.162;2024-03-07T06:17:50;102073.41;;;2.82;100.00
49835;BME280;35729;52.090;13.162;2024-03-07T06:20:18;102074.28;;;2.81;100.00
49835;BME280;35729;52.090;13.162;2024-03-07T06:22:50;102081.16;;;2.80;100.00
49835;BME280;35729;52.090;13.162;2024-03-07T06:25:19;102069.88;;;2.78;100.00
49835;BME280;35729;52.090;13.162;2024-03-07T06:28:02;102085.44;;;2.78;100.00
49835;BME280;35729;52.090;13.162;2024-03-07T06:30:35;102086.19;;;2.75;100.00
49835;BME280;35729;52.090;13.162;2024-03-07T06:33:05;102083.50;;;2.72;100.00
49835;BME280;35729;52.090;13.162;2024-03-07T06:35:33;102086.00;;;2.69;100.00
49835;BME280;35729;52.090;13.162;2024-03-07T06:38:04;102089.38;;;2.67;100.00
49835;BME280;35729;52.090;13.162;2024-03-07T06:40:33;102087.56;;;2.64;100.00
49835;BME280;35729;52.090;13.162;2024-03-07T06:43:04;102092.75;;;2.64;100.00
49835;BME280;35729;52.090;13.162;2024-03-07T06:45:35;102089.22;;;2.62;100.00
49835;BME280;35729;52.090;13.162;2024-03-07T06:48:11;102095.22;;;2.61;100.00
49835;BME280;35729;52.090;13.162;2024-03-07T06:50:46;102092.63;;;2.61;100.00
49835;BME280;35729;52.090;13.162;2024-03-07T06:53:16;102094.28;;;2.59;100.00
49835;BME280;35729;52.090;13.162;2024-03-07T06:55:45;102090.66;;;2.54;100.00
49835;BME280;35729;52.090;13.162;2024-03-07T06:58:17;102104.66;;;2.59;100.00
49835;BME280;35729;52.090;13.162;2024-03-07T07:00:45;102094.28;;;2.59;100.00
49835;BME280;35729;52.090;13.162;2024-03-07T07:03:15;102105.72;;;2.64;100.00
49835;BME280;35729;52.090;13.162;2024-03-07T07:05:45;102110.97;;;2.67;100.00
49835;BME280;35729;52.090;13.162;2024-03-07T07:08:13;102100.63;;;2.67;100.00
49835;BME280;35729;52.090;13.162;2024-03-07T07:10:48;102105.88;;;2.70;100.00
49835;BME280;35729;52.090;13.162;2024-03-07T07:13:27;102108.47;;;2.70;100.00
49835;BME280;35729;52.090;13.162;2024-03-07T07:15:55;102111.06;;;2.70;100.00
49835;BME280;35729;52.090;13.162;2024-03-07T07:18:23;102102.38;;;2.68;100.00
49835;BME280;35729;52.090;13.162;2024-03-07T07:20:52;102111.03;;;2.69;100.00
49835;BME280;35729;52.090;13.162;2024-03-07T07:23:21;102110.16;;;2.68;100.00
49835;BME280;35729;52.090;13.162;2024-03-07T07:25:52;102112.00;;;2.72;99.85
49835;BME280;35729;52.090;13.162;2024-03-07T07:28:21;102107.69;;;2.73;99.53
49835;BME280;35729;52.090;13.162;2024-03-07T07:30:52;102111.19;;;2.73;99.48
49835;BME280;35729;52.090;13.162;2024-03-07T07:33:20;102117.28;;;2.75;99.27
49835;BME280;35729;52.090;13.162;2024-03-07T07:35:49;102109.59;;;2.77;98.90
49835;BME280;35729;52.090;13.162;2024-03-07T07:38:17;102105.31;;;2.79;99.07
49835;BME280;35729;52.090;13.162;2024-03-07T07:40:46;102108.88;;;2.83;98.98
49835;BME280;35729;52.090;13.162;2024-03-07T07:43:16;102105.50;;;2.85;98.54
49835;BME280;35729;52.090;13.162;2024-03-07T07:45:45;102105.66;;;2.90;98.36
49835;BME280;35729;52.090;13.162;2024-03-07T07:48:16;102104.91;;;2.94;97.89
49835;BME280;35729;52.090;13.162;2024-03-07T07:50:44;102108.44;;;2.96;97.74
49835;BME280;35729;52.090;13.162;2024-03-07T07:53:13;102107.72;;;3.00;97.57
49835;BME280;35729;52.090;13.162;2024-03-07T07:55:42;102106.13;;;3.05;97.54
49835;BME280;35729;52.090;13.162;2024-03-07T07:58:11;102107.16;;;3.10;96.95
49835;BME280;35729;52.090;13.162;2024-03-07T08:00:40;102103.00;;;3.16;96.89
49835;BME280;35729;52.090;13.162;2024-03-07T08:03:09;102097.94;;;3.20;96.28
49835;BME280;35729;52.090;13.162;2024-03-07T08:05:44;102104.16;;;3.25;95.17
49835;BME280;35729;52.090;13.162;2024-03-07T08:08:13;102100.81;;;3.30;95.04
49835;BME280;35729;52.090;13.162;2024-03-07T08:10:43;102102.69;;;3.34;94.82
49835;BME280;35729;52.090;13.162;2024-03-07T08:13:13;102103.63;;;3.37;94.83
49835;BME280;35729;52.090;13.162;2024-03-07T08:15:41;102106.34;;;3.40;94.33
49835;BME280;35729;52.090;13.162;2024-03-07T08:18:10;102105.59;;;3.45;92.73
49835;BME280;35729;52.090;13.162;2024-03-07T08:20:39;102089.03;;;3.41;92.49
49835;BME280;35729;52.090;13.162;2024-03-07T08:23:11;102103.19;;;3.51;93.02
49835;BME280;35729;52.090;13.162;2024-03-07T08:25:40;102097.19;;;3.53;92.97
49835;BME280;35729;52.090;13.162;2024-03-07T08:28:15;102106.88;;;3.59;92.31
49835;BME280;35729;52.090;13.162;2024-03-07T08:30:44;102100.09;;;3.64;92.34
49835;BME280;35729;52.090;13.162;2024-03-07T08:33:12;102108.06;;;3.70;91.58
49835;BME280;35729;52.090;13.162;2024-03-07T08:35:41;102109.91;;;3.74;90.79
49835;BME280;35729;52.090;13.162;2024-03-07T08:38:13;102103.13;;;3.80;90.23
49835;BME280;35729;52.090;13.162;2024-03-07T08:40:42;102104.13;;;3.85;89.90
49835;BME280;35729;52.090;13.162;2024-03-07T08:43:10;102108.50;;;3.86;87.75
49835;BME280;35729;52.090;13.162;2024-03-07T08:45:39;102099.09;;;3.89;87.73
49835;BME280;35729;52.090;13.162;2024-03-07T08:48:08;102099.19;;;3.94;87.02
49835;BME280;35729;52.090;13.162;2024-03-07T08:50:38;102094.94;;;3.96;85.86
49835;BME280;35729;52.090;13.162;2024-03-07T08:53:07;102098.50;;;4.00;85.34
49835;BME280;35729;52.090;13.162;2024-03-07T08:55:38;102096.88;;;4.03;83.90
49835;BME280;35729;52.090;13.162;2024-03-07T08:58:07;102103.88;;;4.07;83.78
49835;BME280;35729;52.090;13.162;2024-03-07T09:00:36;102102.28;;;4.13;83.75
49835;BME280;35729;52.090;13.162;2024-03-07T09:03:05;102105.88;;;4.18;83.43
49835;BME280;35729;52.090;13.162;2024-03-07T09:05:35;102101.69;;;4.23;83.35
49835;BME280;35729;52.090;13.162;2024-03-07T09:08:04;102107.94;;;4.30;81.94
49835;BME280;35729;52.090;13.162;2024-03-07T09:10:57;102102.94;;;4.37;81.91
49835;BME280;35729;52.090;13.162;2024-03-07T09:13:39;102105.75;;;4.45;78.66
49835;BME280;35729;52.090;13.162;2024-03-07T09:16:08;102101.56;;;4.52;80.15
49835;BME280;35729;52.090;13.162;2024-03-07T09:18:37;102100.06;;;4.60;78.75
49835;BME280;35729;52.090;13.162;2024-03-07T09:21:06;102110.66;;;4.69;79.26
49835;BME280;35729;52.090;13.162;2024-03-07T09:23:34;102097.84;;;4.77;77.88
49835;BME280;35729;52.090;13.162;2024-03-07T09:26:05;102096.25;;;4.84;76.04
49835;BME280;35729;52.090;13.162;2024-03-07T09:28:34;102103.34;;;4.89;74.49
49835;BME280;35729;52.090;13.162;2024-03-07T09:31:03;102100.88;;;4.94;74.30
49835;BME280;35729;52.090;13.162;2024-03-07T09:33:31;102086.19;;;4.98;74.98
49835;BME280;35729;52.090;13.162;2024-03-07T09:36:00;102095.91;;;5.05;75.84
49835;BME280;35729;52.090;13.162;2024-03-07T09:38:29;102089.06;;;5.10;74.15
49835;BME280;35729;52.090;13.162;2024-03-07T09:40:57;102082.31;;;5.17;73.37
49835;BME280;35729;52.090;13.162;2024-03-07T09:43:29;102080.69;;;5.22;71.01
49835;BME280;35729;52.090;13.162;2024-03-07T09:45:58;102085.16;;;5.29;71.85
49835;BME280;35729;52.090;13.162;2024-03-07T09:48:27;102083.59;;;5.37;71.59
49835;BME280;35729;52.090;13.162;2024-03-07T09:50:58;102078.56;;;5.47;71.32
49835;BME280;35729;52.090;13.162;2024-03-07T09:53:27;102087.44;;;5.55;70.40
49835;BME280;35729;52.090;13.162;2024-03-07T09:55:58;102078.94;;;5.64;70.28
49835;BME280;35729;52.090;13.162;2024-03-07T09:58:31;102092.97;;;5.72;69.52
49835;BME280;35729;52.090;13.162;2024-03-07T10:01:01;102084.44;;;5.79;70.75
49835;BME280;35729;52.090;13.162;2024-03-07T10:03:32;102081.16;;;5.90;70.71
49835;BME280;35729;52.090;13.162;2024-03-07T10:06:03;102078.69;;;5.97;69.48
49835;BME280;35729;52.090;13.162;2024-03-07T10:08:32;102075.41;;;6.05;69.24
49835;BME280;35729;52.090;13.162;2024-03-07T10:11:00;102076.38;;;6.11;69.57
49835;BME280;35729;52.090;13.162;2024-03-07T10:13:31;102078.22;;;6.17;68.91
49835;BME280;35729;52.090;13.162;2024-03-07T10:16:00;102080.06;;;6.24;69.13
49835;BME280;35729;52.090;13.162;2024-03-07T10:18:31;102080.25;;;6.33;68.71
49835;BME280;35729;52.090;13.162;2024-03-07T10:20:59;102078.69;;;6.43;68.34
49835;BME280;35729;52.090;13.162;2024-03-07T10:23:29;102068.31;;;6.48;66.21
49835;BME280;35729;52.090;13.162;2024-03-07T10:25:59;102061.50;;;6.55;66.93
49835;BME280;35729;52.090;13.162;2024-03-07T10:28:31;102070.31;;;6.63;65.12
49835;BME280;35729;52.090;13.162;2024-03-07T10:31:00;102067.78;;;6.67;66.17
49835;BME280;35729;52.090;13.162;2024-03-07T10:33:29;102066.97;;;6.73;64.63
49835;BME280;35729;52.090;13.162;2024-03-07T10:36:00;102064.38;;;6.75;65.04
49835;BME280;35729;52.090;13.162;2024-03-07T10:38:28;102061.03;;;6.82;65.26
49835;BME280;35729;52.090;13.162;2024-03-07T10:40:56;102052.38;;;6.86;65.07
49835;BME280;35729;52.090;13.162;2024-03-07T10:43:32;102060.41;;;6.98;63.81
49835;BME280;35729;52.090;13.162;2024-03-07T10:46:05;102057.94;;;7.09;62.35
49835;BME280;35729;52.090;13.162;2024-03-07T10:48:38;102058.06;;;7.20;61.28
49835;BME280;35729;52.090;13.162;2024-03-07T10:51:14;102056.47;;;7.28;62.41
49835;BME280;35729;52.090;13.162;2024-03-07T10:53:53;102055.66;;;7.34;60.56
49835;BME280;35729;52.090;13.162;2024-03-07T10:56:34;102051.34;;;7.38;59.17
49835;BME280;35729;52.090;13.162;2024-03-07T10:59:16;102053.16;;;7.43;57.90
49835;BME280;35729;52.090;13.162;2024-03-07T11:01:53;102057.53;;;7.44;60.00
49835;BME280;35729;52.090;13.162;2024-03-07T11:04:22;102052.34;;;7.46;60.84
49835;BME280;35729;52.090;13.162;2024-03-07T11:06:51;102042.75;;;7.46;60.83
49835;BME280;35729;52.090;13.162;2024-03-07T11:09:19;102043.66;;;7.50;61.01
49835;BME280;35729;52.090;13.162;2024-03-07T11:11:55;102037.59;;;7.53;59.95
49835;BME280;35729;52.090;13.162;2024-03-07T11:14:28;102032.38;;;7.54;59.18
49835;BME280;35729;52.090;13.162;2024-03-07T11:16:57;102037.66;;;7.57;60.29
49835;BME280;35729;52.090;13.162;2024-03-07T11:19:26;102026.38;;;7.61;60.40
49835;BME280;35729;52.090;13.162;2024-03-07T11:21:57;102026.41;;;7.63;57.95
49835;BME280;35729;52.090;13.162;2024-03-07T11:24:28;102029.06;;;7.68;58.69
49835;BME280;35729;52.090;13.162;2024-03-07T11:26:58;102030.84;;;7.70;57.58
49835;BME280;35729;52.090;13.162;2024-03-07T11:29:42;102023.00;;;7.72;55.95
49835;BME280;35729;52.090;13.162;2024-03-07T11:32:12;102022.16;;;7.73;56.89
49835;BME280;35729;52.090;13.162;2024-03-07T11:34:42;102021.31;;;7.74;57.55
49835;BME280;35729;52.090;13.162;2024-03-07T11:37:17;102026.53;;;7.75;56.56
49835;BME280;35729;52.090;13.162;2024-03-07T11:39:48;102022.19;;;7.76;57.08
49835;BME280;35729;52.090;13.162;2024-03-07T11:42:25;102019.56;;;7.74;53.73
49835;BME280;35729;52.090;13.162;2024-03-07T11:44:59;102016.09;;;7.75;56.81
49835;BME280;35729;52.090;13.162;2024-03-07T11:47:36;102011.72;;;7.76;54.64
49835;BME280;35729;52.090;13.162;2024-03-07T11:50:07;102007.41;;;7.78;56.98
49835;BME280;35729;52.090;13.162;2024-03-07T11:52:37;102002.22;;;7.82;56.42
49835;BME280;35729;52.090;13.162;2024-03-07T11:55:08;101998.78;;;7.85;56.20
49835;BME280;35729;52.090;13.162;2024-03-07T11:57:36;101991.78;;;7.82;56.06
49835;BME280;35729;52.090;13.162;2024-03-07T12:00:13;101991.78;;;7.82;54.84
49835;BME280;35729;52.090;13.162;2024-03-07T12:02:42;101991.78;;;7.84;56.16
49835;BME280;35729;52.090;13.162;2024-03-07T12:05:14;101988.31;;;7.87;55.97
49835;BME280;35729;52.090;13.162;2024-03-07T12:07:45;101985.72;;;7.90;55.66
49835;BME280;35729;52.090;13.162;2024-03-07T12:10:15;101977.06;;;7.92;56.05
49835;BME280;35729;52.090;13.162;2024-03-07T12:12:50;101976.22;;;7.98;55.95
49835;BME280;35729;52.090;13.162;2024-03-07T12:15:21;101978.91;;;8.06;55.51
49835;BME280;35729;52.090;13.162;2024-03-07T12:17:50;101973.75;;;8.12;55.90
49835;BME280;35729;52.090;13.162;2024-03-07T12:20:19;101973.78;;;8.20;55.59
49835;BME280;35729;52.090;13.162;2024-03-07T12:22:56;101972.09;;;8.23;54.96
49835;BME280;35729;52.090;13.162;2024-03-07T12:25:26;101962.53;;;8.27;54.98
49835;BME280;35729;52.090;13.162;2024-03-07T12:28:06;101963.38;;;8.27;52.95
49835;BME280;35729;52.090;13.162;2024-03-07T12:30:49;101970.38;;;8.30;53.04
49835;BME280;35729;52.090;13.162;2024-03-07T12:33:18;101965.19;;;8.31;55.11
49835;BME280;35729;52.090;13.162;2024-03-07T12:35:49;101966.06;;;8.35;55.10
49835;BME280;35729;52.090;13.162;2024-03-07T12:38:18;101954.78;;;8.42;55.04
49835;BME280;35729;52.090;13.162;2024-03-07T12:41:02;101953.16;;;8.55;54.26
49835;BME280;35729;52.090;13.162;2024-03-07T12:43:33;101948.88;;;8.68;54.51
49835;BME280;35729;52.090;13.162;2024-03-07T12:46:12;101944.59;;;8.84;54.38
49835;BME280;35729;52.090;13.162;2024-03-07T12:48:41;101942.06;;;9.01;53.62
49835;BME280;35729;52.090;13.162;2024-03-07T12:51:10;101949.09;;;9.18;53.23
49835;BME280;35729;52.090;13.162;2024-03-07T12:53:42;101945.66;;;9.34;51.73
49835;BME280;35729;52.090;13.162;2024-03-07T12:56:11;101936.06;;;9.49;52.03
49835;BME280;35729;52.090;13.162;2024-03-07T12:58:43;101938.72;;;9.66;51.88
49835;BME280;35729;52.090;13.162;2024-03-07T13:01:14;101940.47;;;9.87;51.07